Time;durP1;ratioP1;P1;durP2;ratioP2;P2;SDS_P1;SDS_P2;PMS_P1;PMS_P2;Temp;Humidity;BMP_temperature;BMP_pressure;BME280_temperature;BME280_humidity;BME280_pressure;Samples;Min_cycle;Max_cycle;Signal;HPM_P1;HPM_P2
2023/08/03 00:00:18;;;;;;;3.53;1.53;;;16.70;99.90;;;;;;6071780;23;20587;-88
2023/08/03 00:02:45;;;;;;;1.53;1.20;;;16.70;99.90;;;;;;6071668;23;20279;-88
2023/08/03 00:05:13;;;;;;;2.77;1.30;;;16.70;99.90;;;;;;6094254;23;20200;-88
2023/08/03 00:07:39;;;;;;;3.47;1.50;;;16.80;99.90;;;;;;6070223;23;20267;-88
2023/08/03 00:10:05;;;;;;;1.47;1.30;;;16.80;99.90;;;;;;6068907;23;20231;-87
2023/08/03 00:12:30;;;;;;;2.13;1.27;;;16.70;99.90;;;;;;6068494;23;20177;-87
2023/08/03 00:14:56;;;;;;;3.73;1.57;;;16.70;99.90;;;;;;6069334;23;20165;-88
2023/08/03 00:17:22;;;;;;;1.63;1.53;;;16.70;99.90;;;;;;6067702;23;20201;-87
2023/08/03 00:19:48;;;;;;;1.90;1.60;;;16.70;99.90;;;;;;6068575;23;20200;-88
2023/08/03 00:22:13;;;;;;;2.80;1.53;;;16.80;99.90;;;;;;6068394;23;20204;-88
2023/08/03 00:24:39;;;;;;;1.40;1.30;;;16.70;99.90;;;;;;6068783;23;20225;-88
2023/08/03 00:27:05;;;;;;;2.63;1.33;;;16.70;99.90;;;;;;6068454;23;20531;-89
2023/08/03 00:29:31;;;;;;;3.07;1.40;;;16.70;99.90;;;;;;6067838;23;20225;-88
2023/08/03 00:31:59;;;;;;;3.33;2.00;;;16.60;99.90;;;;;;6068510;23;20200;-88
2023/08/03 00:34:25;;;;;;;1.83;1.73;;;16.60;99.90;;;;;;6092936;23;20243;-87
2023/08/03 00:36:50;;;;;;;2.97;2.53;;;16.60;99.90;;;;;;6069257;23;20203;-88
2023/08/03 00:39:16;;;;;;;3.20;1.23;;;16.60;99.90;;;;;;6069083;23;20172;-86
2023/08/03 00:41:42;;;;;;;2.87;1.60;;;16.60;99.90;;;;;;6068204;23;20215;-88
2023/08/03 00:44:07;;;;;;;1.80;1.70;;;16.60;99.90;;;;;;6068162;23;20203;-88
2023/08/03 00:46:33;;;;;;;2.40;1.47;;;16.50;99.90;;;;;;6067350;23;20295;-88
2023/08/03 00:48:59;;;;;;;3.60;1.60;;;16.50;99.90;;;;;;6067549;23;20212;-88
2023/08/03 00:51:25;;;;;;;1.67;1.30;;;16.50;99.90;;;;;;6068197;23;20256;-89
2023/08/03 00:53:51;;;;;;;4.90;1.83;;;16.60;99.90;;;;;;6067610;23;20235;-88
2023/08/03 00:56:16;;;;;;;1.33;1.00;;;16.60;99.90;;;;;;6068188;23;20224;-89
2023/08/03 00:58:42;;;;;;;1.87;1.10;;;16.60;99.90;;;;;;6068453;23;20204;-88
2023/08/03 01:01:09;;;;;;;2.23;1.10;;;16.50;99.90;;;;;;6068273;23;20535;-88
2023/08/03 01:03:35;;;;;;;6.27;1.33;;;16.60;99.90;;;;;;6069081;23;20247;-87
2023/08/03 01:06:01;;;;;;;4.37;1.63;;;16.60;99.90;;;;;;6069112;23;20240;-88
2023/08/03 01:08:27;;;;;;;1.53;1.20;;;16.60;99.90;;;;;;6068012;23;20239;-87
2023/08/03 01:10:53;;;;;;;1.60;1.30;;;16.60;99.90;;;;;;6092108;23;20299;-87
2023/08/03 01:13:20;;;;;;;1.40;1.30;;;16.60;99.90;;;;;;6068938;23;20227;-87
2023/08/03 01:15:46;;;;;;;1.17;1.00;;;16.60;99.90;;;;;;6068125;23;20617;-87
2023/08/03 01:18:12;;;;;;;1.67;1.20;;;16.60;99.90;;;;;;6068423;23;20161;-87
2023/08/03 01:20:41;;;;;;;1.67;1.10;;;16.60;99.90;;;;;;6066409;23;20204;-88
2023/08/03 01:23:08;;;;;;;1.20;1.10;;;16.60;99.90;;;;;;6091993;23;20203;-88
2023/08/03 01:25:35;;;;;;;2.00;1.63;;;16.70;99.90;;;;;;6091849;23;20215;-88
2023/08/03 01:28:03;;;;;;;2.03;1.83;;;16.70;99.90;;;;;;6071862;23;20205;-88
2023/08/03 01:30:30;;;;;;;1.73;1.50;;;16.60;99.90;;;;;;6121465;23;20267;-89
2023/08/03 01:32:56;;;;;;;1.57;1.07;;;16.70;99.90;;;;;;6098540;23;20152;-87
2023/08/03 01:35:22;;;;;;;1.43;1.13;;;16.70;99.90;;;;;;6097324;23;20641;-88
2023/08/03 01:37:50;;;;;;;1.30;1.13;;;16.60;99.90;;;;;;6097267;23;20200;-88
2023/08/03 01:40:17;;;;;;;2.80;1.67;;;16.70;99.90;;;;;;6121412;23;20287;-88
2023/08/03 01:42:43;;;;;;;1.70;1.60;;;16.70;99.90;;;;;;6097681;23;20247;-90
2023/08/03 01:45:09;;;;;;;3.93;1.90;;;16.70;99.90;;;;;;6098336;23;20187;-89
2023/08/03 01:47:35;;;;;;;3.23;1.60;;;16.70;99.90;;;;;;6121487;23;20207;-88
2023/08/03 01:50:01;;;;;;;2.27;1.70;;;16.70;99.90;;;;;;6097628;23;20214;-88
2023/08/03 01:52:27;;;;;;;2.37;1.20;;;16.70;99.90;;;;;;6098040;23;20200;-89
2023/08/03 01:54:53;;;;;;;1.70;1.50;;;16.70;99.90;;;;;;6097732;23;20681;-88
2023/08/03 01:57:19;;;;;;;1.63;1.50;;;16.80;99.90;;;;;;6099217;23;20160;-87
2023/08/03 01:59:45;;;;;;;3.30;1.63;;;16.80;99.90;;;;;;6097710;23;20204;-88
2023/08/03 02:02:12;;;;;;;3.07;1.70;;;16.80;99.90;;;;;;6121459;23;20204;-90
2023/08/03 02:04:38;;;;;;;2.10;1.63;;;16.90;99.90;;;;;;6122667;23;20203;-88
2023/08/03 02:07:16;;;;;;;3.23;1.30;;;16.90;99.90;;;;;;6097455;23;20331;-89
2023/08/03 02:09:41;;;;;;;0.90;0.90;;;16.90;99.90;;;;;;6124544;23;20665;-89
2023/08/03 02:12:08;;;;;;;2.97;1.33;;;16.90;99.90;;;;;;6099825;23;20239;-88
2023/08/03 02:14:34;;;;;;;3.07;2.00;;;16.90;99.90;;;;;;6099085;23;20215;-88
2023/08/03 02:17:00;;;;;;;0.67;0.67;;;16.90;99.90;;;;;;6124427;23;20203;-89
2023/08/03 02:19:26;;;;;;;1.87;1.10;;;17.00;99.90;;;;;;6123967;23;20275;-88
2023/08/03 02:21:52;;;;;;;1.53;1.43;;;17.10;99.90;;;;;;6099274;23;20710;-89
2023/08/03 02:24:18;;;;;;;1.43;0.80;;;17.00;99.90;;;;;;6099609;23;20820;-88
2023/08/03 02:26:43;;;;;;;1.57;1.00;;;16.90;99.90;;;;;;6099763;23;20207;-92
2023/08/03 02:29:09;;;;;;;0.80;0.67;;;16.90;99.90;;;;;;6096216;23;20612;-87
2023/08/03 02:31:35;;;;;;;0.80;0.80;;;17.00;99.90;;;;;;6099825;23;20668;-88
2023/08/03 02:34:01;;;;;;;1.17;1.00;;;17.00;99.90;;;;;;6100685;23;20291;-88
2023/08/03 02:36:26;;;;;;;4.13;1.07;;;17.00;99.90;;;;;;6124840;23;20161;-87
2023/08/03 02:38:52;;;;;;;1.03;0.87;;;17.00;99.90;;;;;;6100684;23;20291;-88
2023/08/03 02:41:18;;;;;;;1.57;1.23;;;17.10;99.90;;;;;;6099569;23;20210;-90
2023/08/03 02:43:44;;;;;;;1.30;0.93;;;17.00;99.90;;;;;;6099856;23;20206;-88
2023/08/03 02:46:09;;;;;;;1.30;1.20;;;17.00;99.90;;;;;;6099594;23;20200;-87
2023/08/03 02:48:35;;;;;;;1.07;1.00;;;17.00;99.90;;;;;;6099812;23;20171;-88
2023/08/03 02:51:01;;;;;;;3.20;0.93;;;17.00;99.90;;;;;;6098583;23;20156;-89
2023/08/03 02:53:27;;;;;;;1.70;1.43;;;17.00;99.90;;;;;;6097897;23;20744;-88
2023/08/03 02:55:52;;;;;;;3.53;1.30;;;16.90;99.90;;;;;;6097439;23;20211;-86
2023/08/03 02:58:18;;;;;;;1.90;1.23;;;17.00;99.90;;;;;;6097631;23;20304;-89
2023/08/03 03:00:44;;;;;;;1.13;1.00;;;16.90;99.90;;;;;;6097842;23;20176;-88
2023/08/03 03:03:10;;;;;;;1.40;1.30;;;16.90;99.90;;;;;;6098616;23;20489;-88
2023/08/03 03:05:35;;;;;;;1.70;0.93;;;16.90;99.90;;;;;;6097799;23;20223;-91
2023/08/03 03:08:01;;;;;;;1.80;1.33;;;16.90;99.90;;;;;;6097809;23;20204;-87
2023/08/03 03:10:27;;;;;;;1.50;1.20;;;17.00;99.90;;;;;;6122603;23;20212;-88
2023/08/03 03:12:53;;;;;;;5.23;1.60;;;17.00;99.90;;;;;;6098710;23;20330;-87
2023/08/03 03:15:19;;;;;;;2.47;1.87;;;17.00;99.90;;;;;;6099074;23;20171;-87
2023/08/03 03:17:44;;;;;;;1.93;1.37;;;17.00;99.90;;;;;;6098028;23;20200;-87
2023/08/03 03:20:11;;;;;;;2.50;2.03;;;17.00;99.90;;;;;;6098223;23;20200;-88
2023/08/03 03:22:36;;;;;;;2.70;2.00;;;17.00;99.90;;;;;;6123572;23;20206;-90
2023/08/03 03:25:03;;;;;;;1.93;1.80;;;17.00;99.90;;;;;;6123722;23;20219;-87
2023/08/03 03:27:29;;;;;;;1.50;1.23;;;17.00;99.90;;;;;;6098848;23;20205;-88
2023/08/03 03:29:55;;;;;;;3.30;1.97;;;17.00;99.90;;;;;;6098246;23;20211;-88
2023/08/03 03:32:21;;;;;;;1.70;1.40;;;17.00;99.90;;;;;;6122655;23;20209;-87
2023/08/03 03:34:47;;;;;;;2.00;1.80;;;17.00;99.90;;;;;;6098697;23;20199;-87
2023/08/03 03:37:13;;;;;;;2.00;1.33;;;17.00;99.90;;;;;;6123134;23;20192;-88
2023/08/03 03:39:39;;;;;;;2.57;1.47;;;17.00;99.90;;;;;;6098376;23;20195;-87
2023/08/03 03:42:05;;;;;;;2.73;1.93;;;16.90;99.90;;;;;;6098097;23;20164;-87
2023/08/03 03:44:32;;;;;;;2.27;1.47;;;16.90;99.90;;;;;;6097395;23;20223;-88
2023/08/03 03:46:59;;;;;;;2.23;1.50;;;16.90;99.90;;;;;;6097304;23;20251;-87
2023/08/03 03:49:24;;;;;;;2.80;2.03;;;16.80;99.90;;;;;;6097827;23;20242;-88
2023/08/03 03:51:50;;;;;;;2.30;2.10;;;16.80;99.90;;;;;;6098622;23;20192;-89
2023/08/03 03:54:16;;;;;;;2.00;1.83;;;16.80;99.90;;;;;;6099838;23;20164;-88
2023/08/03 03:56:41;;;;;;;2.73;2.40;;;16.70;99.90;;;;;;6099053;23;20200;-87
2023/08/03 03:59:07;;;;;;;5.07;1.57;;;16.70;99.90;;;;;;6098874;23;20256;-89
2023/08/03 04:01:33;;;;;;;2.17;1.90;;;16.60;99.90;;;;;;6097760;23;20570;-87
2023/08/03 04:03:59;;;;;;;3.90;1.77;;;16.60;99.90;;;;;;6122034;23;20200;-89
2023/08/03 04:06:24;;;;;;;2.70;2.00;;;16.60;99.90;;;;;;6098234;23;20171;-87
2023/08/03 04:08:50;;;;;;;5.87;3.60;;;16.60;99.90;;;;;;6097276;23;20199;-89
2023/08/03 04:11:16;;;;;;;5.30;1.70;;;16.60;99.90;;;;;;6097112;23;20244;-87
2023/08/03 04:13:42;;;;;;;2.60;1.90;;;16.70;99.90;;;;;;6097254;23;20192;-88
2023/08/03 04:16:07;;;;;;;5.10;2.70;;;16.60;99.90;;;;;;6097182;23;20527;-88
2023/08/03 04:18:35;;;;;;;3.37;1.97;;;16.50;99.90;;;;;;6097780;23;20160;-87
2023/08/03 04:21:00;;;;;;;2.97;1.73;;;16.50;99.90;;;;;;6099237;23;20219;-88
2023/08/03 04:23:26;;;;;;;1.80;1.37;;;16.50;99.90;;;;;;6097705;23;20208;-87
2023/08/03 04:25:52;;;;;;;1.77;1.33;;;16.40;99.90;;;;;;6097839;23;20222;-87
2023/08/03 04:28:18;;;;;;;4.70;1.70;;;16.30;99.90;;;;;;6097865;23;20235;-89
2023/08/03 04:30:43;;;;;;;2.80;1.27;;;16.10;99.90;;;;;;6097819;23;20193;-87
2023/08/03 04:33:09;;;;;;;1.43;0.87;;;16.00;99.90;;;;;;6098527;23;20244;-89
2023/08/03 04:35:35;;;;;;;24.47;1.70;;;16.10;99.90;;;;;;6095970;23;20655;-87
2023/08/03 04:38:01;;;;;;;16.10;2.70;;;16.10;99.90;;;;;;6095841;23;20199;-90
2023/08/03 04:40:26;;;;;;;1.57;1.47;;;16.20;99.90;;;;;;6095602;23;20199;-87
2023/08/03 04:42:52;;;;;;;12.73;1.53;;;16.30;99.90;;;;;;6095793;23;20219;-87
2023/08/03 04:45:18;;;;;;;5.13;1.80;;;16.30;99.90;;;;;;6096814;23;20469;-87
2023/08/03 04:47:44;;;;;;;3.20;1.80;;;16.20;99.90;;;;;;6096646;23;20645;-88
2023/08/03 04:50:09;;;;;;;1.83;1.63;;;16.30;99.90;;;;;;6097543;23;20231;-88
2023/08/03 04:52:35;;;;;;;2.60;1.47;;;16.30;99.90;;;;;;6073807;23;20279;-87
2023/08/03 04:55:01;;;;;;;2.90;1.80;;;16.30;99.90;;;;;;6096463;23;20192;-87
2023/08/03 04:57:27;;;;;;;3.13;1.60;;;16.40;99.90;;;;;;6096693;23;20159;-88
2023/08/03 04:59:52;;;;;;;1.77;1.47;;;16.40;99.90;;;;;;6099694;23;20156;-88
2023/08/03 05:02:18;;;;;;;2.50;1.80;;;16.50;99.90;;;;;;6098841;23;20218;-86
2023/08/03 05:04:44;;;;;;;1.30;1.13;;;16.60;99.90;;;;;;6099198;23;20203;-87
2023/08/03 05:07:09;;;;;;;2.30;1.77;;;16.50;99.90;;;;;;6099698;23;20196;-86
2023/08/03 05:09:35;;;;;;;2.80;1.70;;;16.70;99.90;;;;;;6098996;23;20258;-87
2023/08/03 05:12:01;;;;;;;2.27;1.87;;;16.70;99.90;;;;;;6099960;23;20215;-87
2023/08/03 05:14:27;;;;;;;3.03;1.90;;;16.80;99.90;;;;;;6098853;23;20203;-88
2023/08/03 05:16:52;;;;;;;4.53;1.90;;;16.90;99.90;;;;;;6123538;23;20195;-88
2023/08/03 05:19:18;;;;;;;3.27;1.93;;;17.00;99.90;;;;;;6122333;23;20256;-88
2023/08/03 05:21:44;;;;;;;4.90;2.37;;;17.00;99.90;;;;;;6097702;23;20223;-87
2023/08/03 05:24:10;;;;;;;3.60;2.03;;;17.20;99.90;;;;;;6097612;23;20168;-88
2023/08/03 05:26:36;;;;;;;4.63;1.70;;;17.70;99.90;;;;;;6096863;23;20196;-88
2023/08/03 05:29:03;;;;;;;3.10;2.17;;;19.00;99.90;;;;;;6120449;23;20219;-87
2023/08/03 05:31:29;;;;;;;4.03;2.30;;;20.00;99.90;;;;;;6120814;23;20538;-87
2023/08/03 05:33:55;;;;;;;2.57;1.80;;;20.70;99.90;;;;;;6096609;23;20223;-90
2023/08/03 05:36:22;;;;;;;2.90;1.77;;;21.30;99.90;;;;;;6097831;23;20163;-87
2023/08/03 05:38:53;;;;;;;2.03;1.63;;;22.20;99.90;;;;;;6096592;23;20613;-87
2023/08/03 05:41:22;;;;;;;1.77;1.53;;;23.20;99.90;;;;;;6120821;23;20202;-90
2023/08/03 05:43:47;;;;;;;1.80;1.53;;;23.30;99.90;;;;;;6122941;23;20200;-87
2023/08/03 05:46:14;;;;;;;2.20;1.23;;;24.50;99.90;;;;;;6097965;23;20255;-87
2023/08/03 05:48:41;;;;;;;4.80;1.93;;;25.20;99.90;;;;;;6123108;23;20609;-88
2023/08/03 05:51:10;;;;;;;0.80;0.80;;;26.30;99.90;;;;;;6123081;23;20187;-88
2023/08/03 05:53:36;;;;;;;3.40;0.87;;;26.50;99.90;;;;;;6121957;23;20552;-88
2023/08/03 05:56:09;;;;;;;0.75;0.75;;;27.80;99.90;;;;;;6097486;23;20200;-89
2023/08/03 05:58:36;;;;;;;1.33;0.80;;;27.10;99.90;;;;;;6122265;23;20304;-90
2023/08/03 06:01:02;;;;;;;1.27;0.57;;;27.50;99.90;;;;;;6099251;23;20255;-88
2023/08/03 06:03:32;;;;;;;0.88;0.80;;;27.30;99.90;;;;;;6099298;23;20515;-89
2023/08/03 06:06:03;;;;;;;1.20;1.05;;;26.80;99.90;;;;;;6123041;23;20260;-88
2023/08/03 06:08:29;;;;;;;0.50;0.50;;;27.50;99.90;;;;;;6121841;23;20203;-86
2023/08/03 06:11:00;;;;;;;3.72;0.70;;;27.50;99.90;;;;;;6097091;23;20204;-88
2023/08/03 06:13:29;;;;;;;1.63;0.93;;;27.40;99.90;;;;;;6121365;23;20200;-91
2023/08/03 06:15:55;;;;;;;1.95;0.80;;;28.00;99.90;;;;;;6097627;23;20191;-86
2023/08/03 06:18:21;;;;;;;1.20;0.70;;;27.60;99.90;;;;;;6121772;23;20167;-88
2023/08/03 06:20:52;;;;;;;1.08;0.70;;;27.50;99.90;;;;;;6120518;23;20202;-86
2023/08/03 06:23:23;;;;;;;0.75;0.75;;;27.90;99.90;;;;;;6120909;23;20700;-88
2023/08/03 06:25:51;;;;;;;0.70;0.50;;;28.10;99.90;;;;;;6120038;23;20255;-87
2023/08/03 06:28:19;;;;;;;1.80;0.60;;;28.70;99.90;;;;;;6117937;23;20191;-85
2023/08/03 06:30:46;;;;;;;1.75;0.98;;;27.30;99.90;;;;;;6093821;23;20215;-87
2023/08/03 06:33:14;;;;;;;2.05;0.82;;;26.30;99.90;;;;;;6095790;23;20192;-85
2023/08/03 06:36:11;;;;;;;0.90;0.70;;;25.80;99.90;;;;;;6094815;23;20227;-85
2023/08/03 06:43:34;;;;;;;0.47;0.47;;;24.60;99.90;;;;;;5689154;24;20172;-86
2023/08/03 06:46:00;;;;;;;3.70;1.00;;;24.50;99.90;;;;;;5831362;24;20196;-85
2023/08/03 06:48:26;;;;;;;2.03;0.82;;;25.10;99.90;;;;;;5899710;24;20203;-85
2023/08/03 06:50:53;;;;;;;1.65;0.70;;;27.00;99.90;;;;;;5990102;23;20233;-87
2023/08/03 06:53:19;;;;;;;0.90;0.75;;;28.30;99.90;;;;;;6064258;23;20208;-85
2023/08/03 06:55:48;;;;;;;1.65;0.65;;;26.30;99.90;;;;;;6040323;23;20204;-88
2023/08/03 06:58:20;;;;;;;2.05;0.75;;;24.00;99.90;;;;;;6017173;23;20255;-86
2023/08/03 07:00:48;;;;;;;3.00;0.93;;;22.80;99.90;;;;;;6062787;23;20149;-88
2023/08/03 07:03:15;;;;;;;1.20;0.80;;;22.00;99.90;;;;;;6064850;23;20163;-89
2023/08/03 07:05:41;;;;;;;1.02;0.93;;;21.50;99.90;;;;;;6065376;23;20233;-89
2023/08/03 07:08:07;;;;;;;3.40;1.25;;;21.80;99.90;;;;;;6041753;23;20590;-88
2023/08/03 07:10:35;;;;;;;3.25;1.30;;;22.90;99.90;;;;;;6117661;23;20212;-88
2023/08/03 07:13:01;;;;;;;1.70;0.90;;;24.70;99.90;;;;;;6095698;23;20196;-86
2023/08/03 07:15:27;;;;;;;1.63;0.85;;;24.80;99.90;;;;;;6120191;23;20215;-89
2023/08/03 07:17:53;;;;;;;1.77;1.25;;;24.20;99.90;;;;;;6092005;23;20602;-89
2023/08/03 07:20:18;;;;;;;1.08;0.98;;;24.50;99.90;;;;;;6092623;23;20292;-84
2023/08/03 07:22:48;;;;;;;2.70;1.00;;;24.60;99.90;;;;;;6117142;23;20291;-83
2023/08/03 07:25:14;;;;;;;0.85;0.85;;;23.40;99.90;;;;;;6117405;23;20271;-90
2023/08/03 07:27:41;;;;;;;3.90;1.13;;;21.90;99.90;;;;;;6118871;23;20207;-87
2023/08/03 07:30:08;;;;;;;2.67;1.00;;;21.60;99.90;;;;;;6116386;23;20392;-89
2023/08/03 07:32:35;;;;;;;3.00;1.20;;;21.90;99.90;;;;;;6095334;23;20280;-88
2023/08/03 07:35:01;;;;;;;3.72;1.98;;;22.60;99.90;;;;;;6095778;23;20567;-92
2023/08/03 07:37:28;;;;;;;1.92;0.90;;;23.70;99.90;;;;;;6095037;23;20195;-91
2023/08/03 07:39:54;;;;;;;2.47;1.10;;;25.10;99.90;;;;;;6093476;23;20651;-92
2023/08/03 07:42:20;;;;;;;4.53;1.33;;;24.40;99.90;;;;;;6095600;23;20168;-92
2023/08/03 07:44:46;;;;;;;3.30;1.13;;;25.20;99.90;;;;;;6093547;23;20278;-89
2023/08/03 07:47:11;;;;;;;2.65;1.08;;;24.90;99.90;;;;;;6093076;23;20246;-88
2023/08/03 07:49:37;;;;;;;2.35;0.88;;;24.00;99.90;;;;;;6092105;23;20208;-89
2023/08/03 07:52:03;;;;;;;1.13;1.00;;;23.70;99.90;;;;;;6093779;23;20251;-90
2023/08/03 07:54:30;;;;;;;3.78;1.58;;;23.70;99.90;;;;;;6070626;23;20164;-89
2023/08/03 07:56:56;;;;;;;1.33;1.10;;;24.20;99.90;;;;;;6117858;23;20526;-89
2023/08/03 07:59:22;;;;;;;1.83;1.10;;;25.40;99.90;;;;;;6092174;23;20235;-89
2023/08/03 08:01:48;;;;;;;1.15;1.00;;;25.10;99.90;;;;;;6117684;23;20424;-89
2023/08/03 08:04:14;;;;;;;1.60;1.27;;;24.60;99.90;;;;;;6094685;23;20196;-89
2023/08/03 08:06:40;;;;;;;3.75;1.40;;;23.90;99.90;;;;;;6096443;23;20170;-85
2023/08/03 08:09:06;;;;;;;3.70;1.63;;;24.50;99.90;;;;;;6120639;23;20188;-86
2023/08/03 08:11:32;;;;;;;2.95;1.25;;;24.80;99.90;;;;;;6095900;23;20204;-88
2023/08/03 08:13:59;;;;;;;2.00;1.58;;;24.10;99.90;;;;;;6095529;23;20280;-90
2023/08/03 08:16:25;;;;;;;2.42;1.55;;;24.50;99.90;;;;;;6095951;23;20283;-87
2023/08/03 08:18:51;;;;;;;6.45;1.70;;;25.80;99.90;;;;;;6119534;23;20263;-85
2023/08/03 08:21:17;;;;;;;1.95;0.90;;;26.30;99.90;;;;;;6096004;23;20164;-87
2023/08/03 08:23:43;;;;;;;3.05;0.98;;;27.30;99.90;;;;;;6119377;23;20210;-85
2023/08/03 08:26:13;;;;;;;3.83;1.52;;;28.00;99.90;;;;;;6092388;23;20195;-86
2023/08/03 08:28:40;;;;;;;1.23;1.13;;;28.00;99.90;;;;;;6094370;23;20633;-84
2023/08/03 08:31:06;;;;;;;3.13;1.15;;;27.10;99.90;;;;;;6119281;23;20699;-87
2023/08/03 08:33:32;;;;;;;1.73;1.63;;;25.30;99.90;;;;;;6095742;23;20180;-86
2023/08/03 08:35:58;;;;;;;2.20;1.35;;;25.10;99.90;;;;;;6120746;23;20164;-86
2023/08/03 08:38:24;;;;;;;3.75;1.23;;;25.10;99.90;;;;;;6120161;23;20677;-88
2023/08/03 08:40:49;;;;;;;1.90;1.17;;;25.90;99.90;;;;;;6120121;23;20207;-86
2023/08/03 08:43:18;;;;;;;4.18;1.55;;;25.10;99.90;;;;;;6119872;23;20207;-88
2023/08/03 08:45:44;;;;;;;3.83;2.03;;;24.90;99.90;;;;;;6119266;23;20156;-89
2023/08/03 08:48:09;;;;;;;3.05;1.33;;;24.50;99.90;;;;;;6096336;23;20164;-88
2023/08/03 08:50:35;;;;;;;0.98;0.90;;;24.50;99.90;;;;;;6095020;23;20203;-88
2023/08/03 08:53:01;;;;;;;1.10;0.70;;;24.20;99.90;;;;;;6095207;23;20195;-87
2023/08/03 08:55:31;;;;;;;4.13;1.02;;;24.40;99.90;;;;;;6119174;23;20199;-86
2023/08/03 08:57:58;;;;;;;2.42;0.73;;;25.20;99.90;;;;;;6119270;23;20191;-86
2023/08/03 09:00:25;;;;;;;2.55;0.70;;;24.70;99.90;;;;;;6120254;23;20184;-86
2023/08/03 09:03:00;;;;;;;5.97;1.00;;;24.00;99.90;;;;;;6095522;23;20200;-86
2023/08/03 09:05:27;;;;;;;0.82;0.77;;;23.40;99.90;;;;;;6119281;23;20207;-87
2023/08/03 09:08:11;;;;;;;2.63;0.90;;;23.70;99.90;;;;;;6119875;23;20210;-87
2023/08/03 09:10:51;;;;;;;2.67;0.80;;;23.20;99.90;;;;;;6118579;23;20207;-85
2023/08/03 09:13:35;;;;;;;0.93;0.85;;;22.70;99.90;;;;;;6119244;23;20763;-87
2023/08/03 09:16:02;;;;;;;2.45;1.15;;;22.00;99.90;;;;;;6118912;23;20204;-85
2023/08/03 09:18:30;;;;;;;1.73;0.80;;;21.90;99.90;;;;;;6118265;23;20196;-86
2023/08/03 09:21:12;;;;;;;2.20;1.02;;;21.90;99.90;;;;;;6095597;23;20160;-86
2023/08/03 09:23:38;;;;;;;3.30;0.77;;;21.80;99.90;;;;;;6096307;23;20235;-86
2023/08/03 09:26:05;;;;;;;2.60;0.70;;;21.60;99.90;;;;;;6120236;23;20704;-86
2023/08/03 09:28:35;;;;;;;1.77;1.45;;;21.50;99.90;;;;;;6096559;23;20216;-88
2023/08/03 09:31:01;;;;;;;1.35;0.77;;;21.30;99.90;;;;;;6095622;23;20290;-87
2023/08/03 09:33:27;;;;;;;1.30;0.88;;;21.20;99.90;;;;;;6120105;23;20160;-86
2023/08/03 09:36:05;;;;;;;2.25;0.85;;;21.40;99.90;;;;;;6094494;23;20602;-86
2023/08/03 09:38:31;;;;;;;3.55;1.08;;;21.30;99.90;;;;;;6118774;23;20203;-89
2023/08/03 09:41:01;;;;;;;1.55;0.82;;;21.30;99.90;;;;;;6120506;23;20275;-87
2023/08/03 09:43:27;;;;;;;1.08;0.80;;;21.30;99.90;;;;;;6073805;23;20259;-87
2023/08/03 09:45:54;;;;;;;2.28;0.57;;;21.40;99.90;;;;;;6097046;23;20538;-86
2023/08/03 09:48:20;;;;;;;1.77;1.02;;;21.60;99.90;;;;;;6123307;23;20167;-87
2023/08/03 09:50:55;;;;;;;4.97;0.88;;;21.20;99.90;;;;;;6096447;23;20216;-86
2023/08/03 09:53:25;;;;;;;0.43;0.43;;;20.70;99.90;;;;;;6120925;23;20195;-88
2023/08/03 09:55:58;;;;;;;3.58;0.60;;;20.80;99.90;;;;;;6096506;23;20256;-87
2023/08/03 09:58:33;;;;;;;1.70;0.80;;;20.40;99.90;;;;;;6120473;23;20807;-87
2023/08/03 10:01:03;;;;;;;0.70;0.70;;;20.40;99.90;;;;;;6120178;23;20191;-87
2023/08/03 10:03:31;;;;;;;0.90;0.75;;;20.50;99.90;;;;;;6119877;23;20144;-86
2023/08/03 10:06:10;;;;;;;1.23;0.65;;;20.60;99.90;;;;;;6119443;23;20194;-85
2023/08/03 10:09:04;;;;;;;0.80;0.80;;;20.80;99.90;;;;;;6118408;23;20195;-86
2023/08/03 10:11:42;;;;;;;0.98;0.77;;;20.80;99.90;;;;;;6091736;23;20218;-87
2023/08/03 10:14:09;;;;;;;1.50;0.97;;;21.20;99.90;;;;;;6120404;23;20220;-87
2023/08/03 10:16:37;;;;;;;1.02;0.60;;;22.00;99.90;;;;;;6119342;23;20196;-88
2023/08/03 10:19:05;;;;;;;1.30;0.60;;;22.70;99.90;;;;;;6094557;23;20199;-87
2023/08/03 10:21:32;;;;;;;0.85;0.77;;;22.90;99.90;;;;;;6094714;23;20163;-88
2023/08/03 10:24:11;;;;;;;1.52;0.90;;;22.80;99.90;;;;;;6095692;23;20156;-89
2023/08/03 10:26:37;;;;;;;2.25;1.00;;;22.60;99.90;;;;;;6119103;23;20203;-87
2023/08/03 10:29:04;;;;;;;0.68;0.68;;;23.00;99.90;;;;;;6120457;23;20200;-89
2023/08/03 10:31:30;;;;;;;3.33;0.85;;;22.40;99.90;;;;;;6120406;23;20218;-87
2023/08/03 10:33:55;;;;;;;0.85;0.57;;;22.10;99.90;;;;;;6120527;23;20192;-87
2023/08/03 10:36:43;;;;;;;0.85;0.80;;;21.80;99.90;;;;;;6121220;23;20527;-89
2023/08/03 10:39:12;;;;;;;0.55;0.55;;;21.60;99.90;;;;;;6120540;23;20620;-87
2023/08/03 10:42:17;;;;;;;3.58;1.00;;;21.60;99.90;;;;;;6095792;23;20199;-89
2023/08/03 10:44:42;;;;;;;2.72;1.30;;;21.30;99.90;;;;;;6121187;23;20227;-88
2023/08/03 10:47:21;;;;;;;2.88;1.10;;;20.70;99.90;;;;;;6095672;23;20207;-87
2023/08/03 10:49:49;;;;;;;1.90;1.60;;;20.70;99.90;;;;;;6115434;23;20214;-88
2023/08/03 10:52:24;;;;;;;3.63;1.58;;;20.70;99.90;;;;;;6092002;23;20677;-87
2023/08/03 10:54:56;;;;;;;1.00;0.87;;;20.80;99.90;;;;;;6103801;23;20203;-87
2023/08/03 10:57:26;;;;;;;0.70;0.70;;;20.40;99.90;;;;;;6100468;23;20157;-87
2023/08/03 10:59:54;;;;;;;0.90;0.87;;;20.10;99.90;;;;;;6092765;23;20230;-86
2023/08/03 11:02:35;;;;;;;0.53;0.53;;;20.10;99.90;;;;;;6084753;23;20227;-89
2023/08/03 11:05:06;;;;;;;1.87;1.00;;;20.20;99.90;;;;;;6118336;23;21301;-88
2023/08/03 11:07:46;;;;;;;1.17;0.63;;;20.20;99.90;;;;;;6094540;23;20199;-85
2023/08/03 11:10:14;;;;;;;1.17;0.70;;;19.90;99.90;;;;;;6118444;23;20242;-86
2023/08/03 11:12:41;;;;;;;0.43;0.43;;;19.50;99.90;;;;;;6118389;23;20160;-88
2023/08/03 11:15:08;;;;;;;1.43;0.83;;;19.30;99.90;;;;;;6119271;23;20165;-87
2023/08/03 11:17:38;;;;;;;0.60;0.60;;;19.30;99.90;;;;;;6094205;23;20207;-88
2023/08/03 11:20:07;;;;;;;0.40;0.40;;;19.30;99.90;;;;;;6118318;23;20203;-87
2023/08/03 11:22:33;;;;;;;3.80;1.23;;;19.40;99.90;;;;;;6117784;23;20262;-86
2023/08/03 11:25:05;;;;;;;6.03;0.83;;;19.50;99.90;;;;;;6117727;23;20219;-87
2023/08/03 11:27:32;;;;;;;1.97;1.00;;;19.70;99.90;;;;;;6117518;23;20243;-88
2023/08/03 11:29:58;;;;;;;0.50;0.50;;;19.80;99.90;;;;;;6118734;23;20279;-87
2023/08/03 11:32:28;;;;;;;1.17;1.10;;;19.60;99.90;;;;;;6092626;23;20200;-88
2023/08/03 11:34:59;;;;;;;1.33;1.23;;;19.50;99.90;;;;;;6117882;23;20200;-88
2023/08/03 11:37:30;;;;;;;1.93;0.70;;;19.50;99.90;;;;;;6097224;23;20629;-86
2023/08/03 11:39:56;;;;;;;8.37;1.33;;;19.50;99.90;;;;;;6106602;23;20200;-87
2023/08/03 11:42:23;;;;;;;1.00;1.00;;;19.30;99.90;;;;;;6121578;23;20157;-88
2023/08/03 11:44:49;;;;;;;2.47;1.23;;;19.20;99.90;;;;;;6093639;23;20279;-86
2023/08/03 11:47:18;;;;;;;1.47;1.33;;;19.00;99.90;;;;;;6117446;23;20204;-87
2023/08/03 11:49:47;;;;;;;1.50;1.13;;;18.90;99.90;;;;;;6118394;23;20212;-86
2023/08/03 11:52:21;;;;;;;5.17;1.17;;;18.90;99.90;;;;;;6094198;23;20204;-87
2023/08/03 11:54:48;;;;;;;2.33;1.27;;;18.80;99.90;;;;;;6118499;23;20192;-86
2023/08/03 12:00:03;;;;;;;3.80;1.37;;;18.60;99.90;;;;;;6120265;23;20176;-87
2023/08/03 12:02:47;;;;;;;0.70;0.70;;;18.70;99.90;;;;;;6117037;23;20207;-87
2023/08/03 12:05:19;;;;;;;2.03;0.83;;;18.70;99.90;;;;;;6080934;23;20199;-86
2023/08/03 12:07:57;;;;;;;5.33;1.30;;;18.90;99.90;;;;;;6117080;23;20200;-88
2023/08/03 12:10:23;;;;;;;6.30;2.23;;;19.10;99.90;;;;;;6118174;23;20200;-87
2023/08/03 12:12:49;;;;;;;1.87;1.40;;;19.50;99.90;;;;;;6093919;23;20192;-87
2023/08/03 12:15:17;;;;;;;5.43;1.20;;;19.60;99.90;;;;;;6119015;23;20172;-87
2023/08/03 12:17:43;;;;;;;0.60;0.53;;;19.40;99.90;;;;;;6092844;23;20235;-86
2023/08/03 12:20:10;;;;;;;5.80;1.70;;;19.20;99.90;;;;;;6104968;23;20540;-86
2023/08/03 12:22:36;;;;;;;0.63;0.63;;;19.00;99.90;;;;;;6093938;23;20200;-87
2023/08/03 12:25:08;;;;;;;1.73;1.20;;;19.00;99.90;;;;;;6082801;23;20540;-85
2023/08/03 12:27:40;;;;;;;2.67;1.47;;;18.90;99.90;;;;;;6119401;23;20565;-87
2023/08/03 12:30:10;;;;;;;9.93;2.03;;;19.00;99.90;;;;;;6117832;23;20207;-86
2023/08/03 12:32:36;;;;;;;5.23;1.67;;;18.90;99.90;;;;;;6070807;23;20203;-87
2023/08/03 12:35:01;;;;;;;0.87;0.80;;;19.00;99.90;;;;;;6090664;23;20206;-85
2023/08/03 12:37:27;;;;;;;1.33;1.00;;;19.20;99.90;;;;;;6111790;23;20200;-87
2023/08/03 12:39:53;;;;;;;7.93;1.70;;;19.30;99.90;;;;;;6118407;23;21020;-87
2023/08/03 12:42:19;;;;;;;1.57;1.47;;;19.30;99.90;;;;;;6095243;23;20156;-89
2023/08/03 12:44:45;;;;;;;2.40;1.37;;;19.40;99.90;;;;;;6094643;23;20224;-87
2023/08/03 12:47:10;;;;;;;1.93;1.40;;;19.50;99.90;;;;;;6094796;23;20231;-86
2023/08/03 12:49:36;;;;;;;3.17;1.23;;;19.60;99.90;;;;;;6096583;23;20200;-88
2023/08/03 12:52:03;;;;;;;2.73;1.47;;;19.80;99.90;;;;;;6095107;23;20518;-89
2023/08/03 12:54:29;;;;;;;0.70;0.70;;;19.60;99.90;;;;;;6121562;23;20198;-89